Pauls Valley, OK

12:41 AM CDT on July 12, 2014 (GMT -0500)
Buffalo Trace Ranch (KOKPAULS2) Elev 1033 ft | 34.85 °N, 97.19 °W | Change Station

Current weather conditions updated 3 minutes ago

Clear
Clear
75.7 °F
Feels Like 78 °F
N
0.9
Wind Variable Wind from South
Gusts 1.0 mph

Today is forecast to be Warmer than yesterday.

Today
High -- | Low -- °F
--% Chance of Precip.
Yesterday
High -- | Low -- °F
Precip. -- in
6:24 AM 8:43 PM
Full, 100% visible
Pressure 30.13 in
Visibility 10.0 miles
Clouds Clear
Heat Index 78 °F
Dew Point 64 °F
Humidity 67%
Rainfall 0.00 in
Snow Depth Not available.
UV 0 out of 12
Pollen 5.00 out of 12
Air Quality Not available.
Flu Activity Local Activity
METAR KADH 120535Z AUTO 18009KT 10SM CLR 26/19 A3013 RMK AO2

More Conditions Fewer Conditions

Pressure 30.13 in
Visibility 10.0 miles
Clouds Clear
Heat Index 78 °F
Dew Point 64 °F
Humidity 67%
Rainfall 0.00 in
Snow Depth Not available.
UV 0 out of 12
Pollen 5.00 out of 12
Air Quality Not available.
Flu Activity Local Activity
METAR KADH 120535Z AUTO 18009KT 10SM CLR 26/19 A3013 RMK AO2

More Conditions Fewer Conditions

10-Day Weather Forecast

Almanac

Astronomy

Jul. 12, 2014 Rise Set
Actual Time 6:24 AM CDT 8:43 PM CDT
Civil Twilight 5:55 AM CDT 9:12 PM CDT
Nautical Twilight 5:20 AM CDT 9:48 PM CDT
Astronomical Twilight 4:41 AM CDT 10:26 PM CDT
Moon 8:51 PM CDT 6:42 AM CDT
Length of Visible Light 15h 16m
Length of Day
14h 18m
Tomorrow will be 1m 0s shorter.
Full, 100% of the Moon is Illuminated
Today
Full
Jul 12
Full
Jul 18
Last Quarter
Jul 26
New
Aug 3
First Quarter

Today's Extremes

State Highs State Lows

Community

WunderPhotos

Upload Photos

1,732,713 photos uploaded!

Nearby

Snow Depth

Station Depth Elevation
No new snow has been reported.

Earthquake Activity

City Distance Mag. Time & Date
Cherokee, Oklahoma 145 miles 2.8 10:43 AM CDT
2014-07-06
Medford, Oklahoma 141 miles 3.1 10:22 AM CDT
2014-07-06
Medford, Oklahoma 139 miles 3.2 11:10 PM CDT
2014-07-05
Perry, Oklahoma 102 miles 3.3 8:44 PM CDT
2014-07-05
Minimum magnitude displayed is 2.5.

Coastal Water Temperatures

Place Temperature
No Stations Reporting

Nearby Weather Stations

Station Location Temp. Heat Index Dew Point Humidity Wind Precip. Elev Updated Type
Buffalo Trace Ranch, Pauls Valley, OK 75.7 °F 78 °F 64 °F 67% South  at  0.9 mph 0.00 in / hr 1033 ft 12:37 AM CDT Rapid Fire
Lake View, Stratford, OK 77.7 °F 79 °F 64 °F 62% SSW  at  2.0 mph 0.00 in / hr 1135 ft 12:40 AM CDT Normal
NonFedAWOS MULDROWARMY , Lexington, OK 79 °F 81 °F 64 °F 61% South  at  5 mph 0.00 in / hr 1086 ft 11:55 PM CDT MADIS
Sulphur, OK 77.5 °F 79 °F 61 °F 57% SSW  at  2.7 mph 0.00 in / hr 980 ft 1:41 AM EDT Rapid Fire

Show More Stations Show Fewer Stations